Time;durP1;ratioP1;P1;durP2;ratioP2;P2;SDS_P1;SDS_P2;PMS_P1;PMS_P2;Temp;Humidity;BMP_temperature;BMP_pressure;BME280_temperature;BME280_humidity;BME280_pressure;Samples;Min_cycle;Max_cycle;Signal;HPM_P1;HPM_P2
2024/04/23 00:01:27;;;;;;;0.30;0.30;;;7.00;80.00;;;;;;5331543;26;110473;-56
2024/04/23 00:03:53;;;;;;;0.32;0.30;;;7.10;79.70;;;;;;5332558;26;110511;-56
2024/04/23 00:06:18;;;;;;;0.30;0.30;;;7.10;79.80;;;;;;5332712;26;110806;-56
2024/04/23 00:08:44;;;;;;;0.30;0.30;;;7.00;80.20;;;;;;5331254;26;111136;-56
2024/04/23 00:11:09;;;;;;;1.65;0.50;;;7.10;80.00;;;;;;5330059;26;111579;-56
2024/04/23 00:13:35;;;;;;;0.40;0.35;;;7.20;79.50;;;;;;5332558;26;110350;-56
2024/04/23 00:16:01;;;;;;;0.30;0.30;;;7.10;79.80;;;;;;5332371;26;110688;-56
2024/04/23 00:18:26;;;;;;;0.32;0.20;;;6.90;80.20;;;;;;5331569;26;111041;-56
2024/04/23 00:20:55;;;;;;;2.88;0.30;;;7.10;80.10;;;;;;5331309;26;111285;-56
2024/04/23 00:23:25;;;;;;;0.65;0.30;;;7.30;79.30;;;;;;5332323;26;110492;-56
2024/04/23 00:25:50;;;;;;;0.50;0.20;;;7.20;79.70;;;;;;5332439;26;110454;-56
2024/04/23 00:28:16;;;;;;;0.22;0.20;;;7.20;79.50;;;;;;5331741;26;111009;-56
2024/04/23 00:30:42;;;;;;;0.40;0.20;;;7.20;79.90;;;;;;5331367;26;111633;-56
2024/04/23 00:33:07;;;;;;;0.25;0.25;;;7.30;79.30;;;;;;5332023;26;110950;-56
2024/04/23 00:35:36;;;;;;;0.20;0.20;;;7.30;80.00;;;;;;5332249;26;110501;-56
2024/04/23 00:38:01;;;;;;;0.30;0.30;;;7.20;79.70;;;;;;5331050;26;111160;-56
2024/04/23 00:40:28;;;;;;;0.85;0.52;;;7.30;79.80;;;;;;5331246;26;111803;-56
2024/04/23 00:42:55;;;;;;;0.73;0.28;;;7.10;80.50;;;;;;5332235;26;110681;-56
2024/04/23 00:45:24;;;;;;;0.28;0.20;;;7.20;80.40;;;;;;5332359;26;110622;-56
2024/04/23 00:47:50;;;;;;;0.60;0.20;;;7.00;81.50;;;;;;5330957;26;111415;-56
2024/04/23 00:50:16;;;;;;;0.35;0.20;;;7.10;80.90;;;;;;5330962;26;110788;-56
2024/04/23 00:52:43;;;;;;;5.88;3.50;;;7.20;80.90;;;;;;5330486;26;110768;-56
2024/04/23 00:55:09;;;;;;;2.25;1.45;;;7.30;80.50;;;;;;5332117;26;110742;-56
2024/04/23 00:57:35;;;;;;;0.20;0.20;;;7.10;81.00;;;;;;5329335;26;112343;-56
2024/04/23 01:00:01;;;;;;;0.45;0.20;;;7.20;81.00;;;;;;5330742;26;111692;-56
2024/04/23 01:02:28;;;;;;;0.30;0.10;;;7.10;81.30;;;;;;5331760;26;110884;-56
2024/04/23 01:04:54;;;;;;;0.73;0.30;;;7.10;81.50;;;;;;5332286;26;110534;-56
2024/04/23 01:07:19;;;;;;;0.88;0.30;;;7.10;81.80;;;;;;5330800;26;111505;-56
2024/04/23 01:09:45;;;;;;;1.50;0.30;;;7.10;81.90;;;;;;5330984;26;110681;-56
2024/04/23 01:12:10;;;;;;;0.73;0.20;;;7.00;82.40;;;;;;5331551;26;110744;-56
2024/04/23 01:14:40;;;;;;;0.30;0.30;;;7.10;82.20;;;;;;5332454;26;110989;-56
2024/04/23 01:17:07;;;;;;;0.38;0.28;;;7.10;81.60;;;;;;5330957;26;112361;-56
2024/04/23 01:19:38;;;;;;;0.80;0.35;;;7.10;81.90;;;;;;5330744;26;110833;-56
2024/04/23 01:22:32;;;;;;;0.28;0.20;;;7.10;82.80;;;;;;5331484;26;110541;-56
2024/04/23 01:25:16;;;;;;;1.23;0.40;;;7.10;81.80;;;;;;5317311;26;110519;-56
2024/04/23 01:27:43;;;;;;;1.23;0.20;;;7.10;82.10;;;;;;5325364;26;113231;-56
2024/04/23 01:30:10;;;;;;;0.25;0.25;;;6.90;82.10;;;;;;5329006;26;111591;-56
2024/04/23 01:32:39;;;;;;;0.75;0.20;;;6.90;82.40;;;;;;5331432;26;113055;-56
2024/04/23 01:35:07;;;;;;;0.93;0.30;;;7.00;81.90;;;;;;5332080;26;110930;-56
2024/04/23 01:37:35;;;;;;;1.65;0.28;;;7.00;82.30;;;;;;5330617;26;112914;-56
2024/04/23 01:40:03;;;;;;;1.17;0.20;;;7.00;82.50;;;;;;5328821;26;111578;-56
2024/04/23 01:42:30;;;;;;;0.60;0.30;;;7.00;82.10;;;;;;5331693;26;110854;-56
2024/04/23 01:44:58;;;;;;;0.30;0.30;;;7.00;82.10;;;;;;5331553;26;110584;-57
2024/04/23 01:47:23;;;;;;;0.40;0.28;;;6.90;82.20;;;;;;5330501;26;111255;-56
2024/04/23 01:49:51;;;;;;;0.30;0.28;;;6.80;82.60;;;;;;5330336;26;110520;-56
2024/04/23 01:52:16;;;;;;;1.33;0.30;;;6.80;82.40;;;;;;5325607;26;110912;-56
2024/04/23 01:54:42;;;;;;;0.63;0.30;;;6.80;82.10;;;;;;5331433;26;110747;-56
2024/04/23 01:57:08;;;;;;;0.45;0.30;;;6.80;82.30;;;;;;5330145;26;112663;-56
2024/04/23 01:59:40;;;;;;;0.38;0.20;;;6.70;82.60;;;;;;5330390;26;110548;-56
2024/04/23 02:02:06;;;;;;;0.35;0.35;;;6.80;82.60;;;;;;5330930;26;110632;-56
2024/04/23 02:04:32;;;;;;;0.75;0.30;;;6.90;82.10;;;;;;5331464;26;110534;-56
2024/04/23 02:06:58;;;;;;;0.32;0.20;;;7.00;82.20;;;;;;5330109;26;111306;-56
2024/04/23 02:09:24;;;;;;;0.30;0.30;;;7.00;82.00;;;;;;5330015;26;111693;-56
2024/04/23 02:11:56;;;;;;;0.20;0.20;;;6.90;82.30;;;;;;5330909;26;110396;-56
2024/04/23 02:14:22;;;;;;;0.25;0.25;;;6.80;82.20;;;;;;5330785;26;110533;-56
2024/04/23 02:16:48;;;;;;;0.25;0.10;;;6.90;82.00;;;;;;5329989;26;112409;-56
2024/04/23 02:19:13;;;;;;;0.43;0.20;;;6.80;82.50;;;;;;5329920;26;112339;-56
2024/04/23 02:21:39;;;;;;;0.20;0.20;;;6.80;82.40;;;;;;5330689;26;110380;-56
2024/04/23 02:24:05;;;;;;;1.05;0.32;;;6.80;82.70;;;;;;5330628;26;110561;-56
2024/04/23 02:26:30;;;;;;;0.30;0.30;;;6.90;82.80;;;;;;5329764;26;112456;-56
2024/04/23 02:28:56;;;;;;;0.20;0.20;;;7.00;82.60;;;;;;5329951;26;111820;-56
2024/04/23 02:31:21;;;;;;;0.43;0.30;;;7.00;82.40;;;;;;5330347;26;110936;-56
2024/04/23 02:33:47;;;;;;;0.40;0.40;;;7.00;82.70;;;;;;5324396;26;110499;-56
2024/04/23 02:36:13;;;;;;;0.52;0.50;;;6.90;83.00;;;;;;5326771;26;112087;-56
2024/04/23 02:38:38;;;;;;;0.70;0.40;;;6.90;83.10;;;;;;5331666;26;111191;-56
2024/04/23 02:41:04;;;;;;;0.50;0.38;;;6.90;83.00;;;;;;5332926;26;110723;-56
2024/04/23 02:43:30;;;;;;;0.35;0.35;;;6.90;83.20;;;;;;5333674;26;110616;-56
2024/04/23 02:45:55;;;;;;;0.63;0.50;;;7.00;83.20;;;;;;5332464;26;113176;-56
2024/04/23 02:48:21;;;;;;;0.32;0.30;;;7.00;83.40;;;;;;5331808;26;110298;-56
2024/04/23 02:50:47;;;;;;;0.85;0.20;;;7.10;83.30;;;;;;5333106;26;110470;-56
2024/04/23 02:53:12;;;;;;;0.38;0.30;;;7.00;83.40;;;;;;5321052;26;111060;-56
2024/04/23 02:55:38;;;;;;;0.65;0.30;;;7.10;83.20;;;;;;5332021;26;112246;-56
2024/04/23 02:58:04;;;;;;;1.20;0.30;;;7.10;83.20;;;;;;5332178;26;110459;-56
2024/04/23 03:00:29;;;;;;;2.03;0.50;;;7.20;83.20;;;;;;5327951;26;113633;-56
2024/04/23 03:02:55;;;;;;;0.20;0.20;;;7.20;83.30;;;;;;5333208;26;110618;-56
2024/04/23 03:05:21;;;;;;;0.30;0.30;;;7.10;83.40;;;;;;5320406;26;111075;-56
2024/04/23 03:07:47;;;;;;;0.20;0.20;;;7.20;83.40;;;;;;5332146;26;110641;-56
2024/04/23 03:10:13;;;;;;;0.77;0.20;;;7.20;83.50;;;;;;5332461;26;110755;-56
2024/04/23 03:12:38;;;;;;;0.22;0.10;;;7.10;83.60;;;;;;5333270;26;111046;-56
2024/04/23 03:15:04;;;;;;;0.20;0.20;;;7.10;83.50;;;;;;5313752;26;112428;-56
2024/04/23 03:17:30;;;;;;;0.20;0.20;;;7.10;83.60;;;;;;5326863;26;110839;-56
2024/04/23 03:19:56;;;;;;;0.40;0.20;;;7.20;83.60;;;;;;5333025;26;110350;-56
2024/04/23 03:22:22;;;;;;;0.30;0.30;;;7.20;83.70;;;;;;5332865;26;110630;-56
2024/04/23 03:24:48;;;;;;;0.30;0.30;;;7.20;83.70;;;;;;5331956;26;112555;-56
2024/04/23 03:27:13;;;;;;;0.20;0.20;;;7.30;83.80;;;;;;5331395;26;110886;-56
2024/04/23 03:29:39;;;;;;;1.40;0.40;;;7.30;84.00;;;;;;5333149;26;110466;-56
2024/04/23 03:32:05;;;;;;;0.20;0.20;;;7.30;84.20;;;;;;5332711;26;110551;-56
2024/04/23 03:34:31;;;;;;;0.28;0.20;;;7.20;84.30;;;;;;5332074;26;111204;-56
2024/04/23 03:36:57;;;;;;;0.20;0.20;;;7.30;84.40;;;;;;5331899;26;112151;-56
2024/04/23 03:39:24;;;;;;;0.30;0.30;;;7.40;84.10;;;;;;5332684;26;110648;-56
2024/04/23 03:41:57;;;;;;;0.20;0.20;;;7.30;84.50;;;;;;5331340;26;110629;-56
2024/04/23 03:44:27;;;;;;;1.08;0.35;;;7.40;84.30;;;;;;5328794;26;113807;-56
2024/04/23 03:46:54;;;;;;;0.55;0.40;;;7.40;84.40;;;;;;5331809;26;110789;-56
2024/04/23 03:49:19;;;;;;;0.20;0.20;;;7.50;84.30;;;;;;5332513;26;110990;-56
2024/04/23 03:51:45;;;;;;;0.93;0.28;;;7.40;84.20;;;;;;5332701;26;110596;-56
2024/04/23 03:54:11;;;;;;;0.28;0.22;;;7.30;84.20;;;;;;5331499;26;112500;-56
2024/04/23 03:56:36;;;;;;;0.13;0.13;;;7.30;84.80;;;;;;5331685;26;110475;-56
2024/04/23 03:59:02;;;;;;;0.40;0.40;;;7.40;84.00;;;;;;5332695;26;110851;-56
2024/04/23 04:01:28;;;;;;;0.30;0.30;;;7.40;83.80;;;;;;5332458;26;110701;-56
2024/04/23 04:06:37;;;;;;;0.40;0.30;;;7.40;83.80;;;;;;5331456;26;110689;-56
2024/04/23 04:09:03;;;;;;;0.20;0.20;;;7.50;83.50;;;;;;5332615;26;110797;-56
2024/04/23 04:11:32;;;;;;;0.47;0.40;;;7.50;83.60;;;;;;5332513;26;110572;-56
2024/04/23 04:14:02;;;;;;;0.40;0.20;;;7.50;83.30;;;;;;5331578;26;111138;-56
2024/04/23 04:16:28;;;;;;;0.47;0.35;;;7.60;83.10;;;;;;5330973;26;111746;-56
2024/04/23 04:18:55;;;;;;;0.77;0.40;;;7.40;83.00;;;;;;5332419;26;110498;-56
2024/04/23 04:21:20;;;;;;;1.85;1.02;;;7.60;82.90;;;;;;5332886;26;110951;-56
2024/04/23 04:23:46;;;;;;;0.47;0.40;;;7.60;82.50;;;;;;5331231;26;110996;-56
2024/04/23 04:26:14;;;;;;;0.55;0.30;;;7.50;82.30;;;;;;5329607;26;112151;-56
2024/04/23 04:28:40;;;;;;;0.40;0.40;;;7.50;82.40;;;;;;5330528;26;110652;-56
2024/04/23 04:31:07;;;;;;;0.32;0.32;;;7.60;82.10;;;;;;5332583;26;110563;-56
2024/04/23 04:33:33;;;;;;;1.08;0.43;;;7.60;82.00;;;;;;5331341;26;110976;-56
2024/04/23 04:35:58;;;;;;;0.50;0.50;;;7.70;81.90;;;;;;5331318;26;111651;-56
2024/04/23 04:38:24;;;;;;;0.60;0.57;;;7.70;81.50;;;;;;5331996;26;110379;-57
2024/04/23 04:40:50;;;;;;;0.50;0.50;;;7.80;81.30;;;;;;5332563;26;110666;-56
2024/04/23 04:43:16;;;;;;;0.50;0.50;;;7.80;81.10;;;;;;5331162;26;110972;-56
2024/04/23 04:45:43;;;;;;;0.40;0.40;;;7.80;80.80;;;;;;5331048;26;111608;-56
2024/04/23 04:48:08;;;;;;;0.40;0.40;;;7.90;80.80;;;;;;5332230;26;110635;-57
2024/04/23 04:50:34;;;;;;;0.28;0.28;;;7.80;80.90;;;;;;5332015;26;110659;-57
2024/04/23 04:53:00;;;;;;;0.50;0.50;;;7.80;81.10;;;;;;5331382;26;111483;-56
2024/04/23 04:55:25;;;;;;;0.52;0.52;;;7.80;80.90;;;;;;5330264;26;112244;-56
2024/04/23 04:57:51;;;;;;;0.55;0.50;;;7.60;81.10;;;;;;5332009;26;110437;-56
2024/04/23 05:00:17;;;;;;;0.50;0.50;;;7.70;81.40;;;;;;5332266;26;110644;-56
2024/04/23 05:02:42;;;;;;;0.60;0.60;;;7.90;81.00;;;;;;5323581;26;113092;-56
2024/04/23 05:05:08;;;;;;;0.88;0.88;;;7.80;80.90;;;;;;5330891;26;110732;-57
2024/04/23 05:07:34;;;;;;;1.10;1.00;;;7.80;81.20;;;;;;5332134;26;110705;-57
2024/04/23 05:10:00;;;;;;;1.20;1.10;;;7.80;81.30;;;;;;5331939;26;110486;-56
2024/04/23 05:12:26;;;;;;;1.05;1.00;;;7.80;81.40;;;;;;5330919;26;112438;-56
2024/04/23 05:14:52;;;;;;;0.70;0.65;;;7.80;81.40;;;;;;5330790;26;111714;-56
2024/04/23 05:17:17;;;;;;;1.75;1.00;;;7.80;81.20;;;;;;5331898;26;110318;-57
2024/04/23 05:19:44;;;;;;;1.02;1.00;;;7.90;81.40;;;;;;5331840;26;110795;-56
2024/04/23 05:22:11;;;;;;;1.10;1.00;;;7.80;81.80;;;;;;5330970;26;112328;-56
2024/04/23 05:24:36;;;;;;;0.52;0.43;;;7.80;81.70;;;;;;5330808;26;112184;-56
2024/04/23 05:27:02;;;;;;;0.40;0.40;;;7.90;81.30;;;;;;5329620;26;110953;-56
2024/04/23 05:29:28;;;;;;;0.60;0.60;;;7.90;81.50;;;;;;5332037;26;110898;-56
2024/04/23 05:34:38;;;;;;;1.33;0.70;;;7.90;81.60;;;;;;5330791;26;110734;-56
2024/04/23 05:37:05;;;;;;;0.90;0.60;;;7.90;81.60;;;;;;5331679;26;110700;-56
2024/04/23 05:39:31;;;;;;;0.80;0.80;;;8.00;81.60;;;;;;5331738;26;110612;-56
2024/04/23 05:41:57;;;;;;;0.70;0.70;;;8.00;81.50;;;;;;5330318;26;112456;-56
2024/04/23 05:44:22;;;;;;;1.58;0.80;;;8.10;81.50;;;;;;5330594;26;111681;-56
2024/04/23 05:46:48;;;;;;;0.70;0.70;;;8.10;81.50;;;;;;5331757;26;110500;-57
2024/04/23 05:49:51;;;;;;;1.10;0.75;;;8.20;80.70;;;;;;5331583;26;110811;-56
2024/04/23 05:52:55;;;;;;;0.90;0.88;;;8.20;80.90;;;;;;5330118;26;112804;-56
2024/04/23 05:55:35;;;;;;;1.05;0.90;;;8.10;81.10;;;;;;5330427;26;110763;-56
2024/04/23 05:58:01;;;;;;;0.77;0.70;;;8.10;81.00;;;;;;5309924;26;110523;-56
2024/04/23 06:00:27;;;;;;;0.70;0.70;;;8.30;80.60;;;;;;5330371;26;110633;-56
2024/04/23 06:02:52;;;;;;;0.80;0.80;;;8.40;80.40;;;;;;5329896;26;112476;-56
2024/04/23 06:05:18;;;;;;;2.25;1.00;;;8.40;79.90;;;;;;5330161;26;111595;-56
2024/04/23 06:07:44;;;;;;;1.15;1.00;;;8.40;79.60;;;;;;5329549;26;110457;-56
2024/04/23 06:10:10;;;;;;;1.85;0.80;;;8.40;79.90;;;;;;5331208;26;110769;-56
2024/04/23 06:12:35;;;;;;;1.27;1.00;;;8.30;80.40;;;;;;5329891;26;111084;-56
2024/04/23 06:15:01;;;;;;;1.75;1.00;;;8.40;79.70;;;;;;5329802;26;110502;-56
2024/04/23 06:17:28;;;;;;;0.98;0.98;;;8.50;79.60;;;;;;5329196;26;110704;-56
2024/04/23 06:19:54;;;;;;;1.25;1.15;;;8.60;79.00;;;;;;5330476;26;110925;-56
2024/04/23 06:22:25;;;;;;;3.05;1.38;;;8.80;78.50;;;;;;5329648;26;111177;-56
2024/04/23 06:24:52;;;;;;;3.50;2.60;;;8.80;78.50;;;;;;5329738;26;110823;-56
2024/04/23 06:27:24;;;;;;;1.88;1.77;;;9.00;77.40;;;;;;5330595;26;111119;-56
2024/04/23 06:29:50;;;;;;;2.03;1.92;;;9.00;77.10;;;;;;5328789;26;110960;-55
2024/04/23 06:32:16;;;;;;;1.77;1.30;;;9.00;77.20;;;;;;5329426;26;111159;-56
2024/04/23 06:34:43;;;;;;;2.00;1.40;;;9.00;76.90;;;;;;5329562;26;110687;-57
2024/04/23 06:37:08;;;;;;;1.50;1.40;;;9.10;76.90;;;;;;5330355;26;110510;-56
2024/04/23 06:39:34;;;;;;;1.50;1.40;;;9.10;76.20;;;;;;5330598;26;111252;-56
2024/04/23 06:42:00;;;;;;;1.30;1.20;;;9.10;75.70;;;;;;5328937;26;111751;-56
2024/04/23 06:44:26;;;;;;;1.33;1.23;;;9.10;76.60;;;;;;5329183;26;111629;-56
2024/04/23 06:46:52;;;;;;;1.63;1.33;;;9.30;76.10;;;;;;5329150;26;110507;-56
2024/04/23 06:49:17;;;;;;;1.80;1.70;;;9.40;76.90;;;;;;5329693;26;110858;-56
2024/04/23 06:51:43;;;;;;;1.60;1.50;;;9.60;75.70;;;;;;5329089;26;112480;-56
2024/04/23 06:54:09;;;;;;;1.70;1.60;;;9.70;74.20;;;;;;5328725;26;110784;-56
2024/04/23 06:56:35;;;;;;;1.65;1.55;;;9.60;74.80;;;;;;5329876;26;110457;-56
2024/04/23 06:59:01;;;;;;;2.25;1.80;;;9.50;75.80;;;;;;5327689;26;110952;-56
2024/04/23 07:01:26;;;;;;;2.05;1.95;;;9.40;77.00;;;;;;5320355;26;111430;-57
2024/04/23 07:03:52;;;;;;;2.08;1.92;;;9.30;77.80;;;;;;5310456;26;110656;-56
2024/04/23 07:06:18;;;;;;;2.42;2.22;;;9.10;78.40;;;;;;5327609;26;110628;-57
2024/04/23 07:08:43;;;;;;;3.05;2.30;;;8.90;79.10;;;;;;5313231;26;110652;-55
2024/04/23 07:11:09;;;;;;;2.50;2.30;;;9.00;79.30;;;;;;5328019;26;112331;-56
2024/04/23 07:13:34;;;;;;;1.90;1.80;;;9.10;79.20;;;;;;5316172;26;113336;-56
2024/04/23 07:16:00;;;;;;;2.20;2.00;;;9.20;78.90;;;;;;5328566;26;110642;-56
2024/04/23 07:18:26;;;;;;;2.40;2.03;;;9.20;79.30;;;;;;5329356;26;110417;-56
2024/04/23 07:20:54;;;;;;;2.40;2.20;;;9.30;78.60;;;;;;5330038;26;112363;-56
2024/04/23 07:23:20;;;;;;;3.03;2.38;;;9.40;78.00;;;;;;5324823;26;110840;-56
2024/04/23 07:25:49;;;;;;;2.70;2.45;;;9.50;78.10;;;;;;5332247;26;110407;-55
2024/04/23 07:28:16;;;;;;;3.05;2.70;;;9.80;77.70;;;;;;5332382;26;111658;-56
2024/04/23 07:30:42;;;;;;;2.78;2.58;;;9.80;77.80;;;;;;5330898;26;112376;-56
2024/04/23 07:33:09;;;;;;;3.05;2.60;;;9.90;77.90;;;;;;5331583;26;110472;-56
2024/04/23 07:35:34;;;;;;;2.75;2.55;;;10.00;76.90;;;;;;5332068;26;110501;-56
2024/04/23 07:38:00;;;;;;;4.45;3.00;;;10.00;77.30;;;;;;5321548;26;112437;-56
2024/04/23 07:40:26;;;;;;;3.05;2.75;;;10.10;76.10;;;;;;5330425;26;111120;-56
2024/04/23 07:42:51;;;;;;;3.45;3.15;;;10.00;77.30;;;;;;5327723;26;111619;-56
2024/04/23 07:45:17;;;;;;;4.47;2.67;;;10.00;76.80;;;;;;5323153;26;110459;-56
2024/04/23 07:47:43;;;;;;;3.35;3.00;;;9.90;77.10;;;;;;5332567;26;111370;-56
2024/04/23 07:50:09;;;;;;;2.95;2.75;;;9.90;76.60;;;;;;5331316;26;111156;-56
2024/04/23 07:52:34;;;;;;;2.90;2.67;;;9.90;76.50;;;;;;5330824;26;110606;-56
2024/04/23 07:55:00;;;;;;;4.10;3.53;;;9.80;75.90;;;;;;5332444;26;110574;-56
2024/04/23 07:57:26;;;;;;;3.90;3.40;;;9.90;75.90;;;;;;5330893;26;110637;-56
2024/04/23 07:59:51;;;;;;;3.30;3.00;;;9.80;76.90;;;;;;5331302;26;112209;-55
2024/04/23 08:02:18;;;;;;;3.35;2.95;;;9.80;76.70;;;;;;5329083;26;110872;-57
2024/04/23 08:04:44;;;;;;;3.20;2.90;;;9.90;75.50;;;;;;5332136;26;110634;-56
2024/04/23 08:07:09;;;;;;;3.22;2.80;;;9.90;74.40;;;;;;5322843;26;110492;-56
2024/04/23 08:09:35;;;;;;;2.70;2.50;;;10.00;73.80;;;;;;5330896;26;111094;-56
2024/04/23 08:12:01;;;;;;;2.60;2.40;;;9.90;73.60;;;;;;5329907;26;111807;-56
2024/04/23 08:14:26;;;;;;;2.72;2.53;;;10.00;73.90;;;;;;5332185;26;110451;-56
2024/04/23 08:16:52;;;;;;;4.13;2.70;;;10.10;73.80;;;;;;5332093;26;113156;-56
2024/04/23 08:19:18;;;;;;;3.65;2.60;;;10.10;74.10;;;;;;5315645;26;111105;-57
2024/04/23 08:21:43;;;;;;;3.10;2.75;;;10.20;74.60;;;;;;5315320;26;110522;-56
2024/04/23 08:24:09;;;;;;;2.55;2.35;;;10.20;73.90;;;;;;5331742;26;110966;-56
2024/04/23 08:26:35;;;;;;;4.53;3.00;;;10.30;72.60;;;;;;5318533;26;110619;-56
2024/04/23 08:29:01;;;;;;;3.85;2.38;;;10.40;71.90;;;;;;5329454;26;112546;-56
2024/04/23 08:31:27;;;;;;;2.08;1.92;;;10.60;70.80;;;;;;5328686;26;110801;-56
2024/04/23 08:33:52;;;;;;;2.75;2.33;;;10.70;70.60;;;;;;5331899;26;110478;-56
2024/04/23 08:36:18;;;;;;;2.00;1.90;;;11.00;71.10;;;;;;5331789;26;110966;-56
2024/04/23 08:38:44;;;;;;;1.90;1.80;;;11.10;68.60;;;;;;5331013;26;111497;-56
2024/04/23 08:41:17;;;;;;;1.85;1.75;;;11.30;68.10;;;;;;5328633;26;111954;-56
2024/04/23 08:44:07;;;;;;;1.52;1.40;;;11.80;66.00;;;;;;5331885;26;110727;-56
2024/04/23 08:46:33;;;;;;;1.17;1.08;;;11.90;65.50;;;;;;5310295;26;110716;-56
2024/04/23 08:49:00;;;;;;;3.17;1.60;;;11.90;64.80;;;;;;5330775;26;111601;-56
2024/04/23 08:51:27;;;;;;;1.80;1.70;;;12.20;64.90;;;;;;5330253;26;110894;-56
2024/04/23 08:53:53;;;;;;;3.33;1.58;;;12.60;64.20;;;;;;5331747;26;110748;-56
2024/04/23 08:56:24;;;;;;;2.42;1.80;;;12.70;63.00;;;;;;5331448;26;110807;-56
2024/04/23 08:58:50;;;;;;;2.22;1.35;;;13.20;62.70;;;;;;5320204;26;112640;-56
2024/04/23 09:01:28;;;;;;;2.38;1.30;;;13.70;60.80;;;;;;5330142;26;111859;-56
2024/04/23 09:03:58;;;;;;;1.40;1.30;;;13.90;61.10;;;;;;5332085;26;112180;-56
2024/04/23 09:06:25;;;;;;;5.57;1.27;;;13.90;58.60;;;;;;5325256;26;110523;-56
2024/04/23 09:08:51;;;;;;;3.03;1.58;;;13.70;59.80;;;;;;5330422;26;112505;-56
2024/04/23 09:11:17;;;;;;;1.50;1.40;;;13.40;59.40;;;;;;5322937;26;110335;-57
2024/04/23 09:13:43;;;;;;;2.95;1.90;;;13.50;59.50;;;;;;5331802;26;110821;-56
2024/04/23 09:16:09;;;;;;;1.48;1.38;;;13.50;59.90;;;;;;5313258;26;110817;-57
2024/04/23 09:18:34;;;;;;;1.70;1.58;;;13.80;59.80;;;;;;5327048;26;114942;-56
2024/04/23 09:21:02;;;;;;;1.63;1.38;;;13.60;60.00;;;;;;5325901;26;110775;-57
2024/04/23 09:23:32;;;;;;;1.65;1.55;;;13.40;59.50;;;;;;5326633;26;110762;-57
2024/04/23 09:26:05;;;;;;;1.33;1.23;;;13.40;59.50;;;;;;5328607;26;110388;-56
2024/04/23 09:28:34;;;;;;;1.48;1.38;;;13.10;60.50;;;;;;5325435;26;112516;-56
2024/04/23 09:31:00;;;;;;;2.25;1.40;;;13.20;59.90;;;;;;5327216;26;112186;-56
2024/04/23 09:33:28;;;;;;;1.30;1.20;;;13.20;60.10;;;;;;5323323;26;110918;-56
2024/04/23 09:36:04;;;;;;;2.53;1.00;;;13.70;61.60;;;;;;5330455;26;111056;-56
2024/04/23 09:38:37;;;;;;;1.52;1.20;;;14.40;59.60;;;;;;5321698;26;111977;-56
2024/04/23 09:41:03;;;;;;;1.52;0.95;;;14.50;57.90;;;;;;5329582;26;110447;-56
2024/04/23 09:43:29;;;;;;;1.25;0.95;;;13.80;58.50;;;;;;5330159;26;110836;-56
2024/04/23 09:45:55;;;;;;;3.42;1.00;;;13.20;59.20;;;;;;5330962;26;111202;-56
2024/04/23 09:48:31;;;;;;;1.25;1.13;;;13.10;59.70;;;;;;5329613;26;113306;-56
2024/04/23 09:51:01;;;;;;;0.70;0.70;;;12.80;60.50;;;;;;5329356;26;112105;-56
2024/04/23 09:53:39;;;;;;;1.88;0.90;;;12.50;60.20;;;;;;5331051;26;110415;-56
2024/04/23 09:56:06;;;;;;;1.05;0.95;;;12.40;61.50;;;;;;5329564;26;110674;-56
2024/04/23 09:58:33;;;;;;;4.90;1.20;;;12.30;64.20;;;;;;5329905;26;111042;-56
2024/04/23 10:01:00;;;;;;;2.38;0.88;;;12.40;66.80;;;;;;5329331;26;111639;-56
2024/04/23 10:03:27;;;;;;;1.95;1.05;;;12.10;67.50;;;;;;5330921;26;110391;-56
2024/04/23 10:06:02;;;;;;;2.05;1.08;;;11.90;70.20;;;;;;5331249;26;111008;-56
2024/04/23 10:08:44;;;;;;;1.15;1.05;;;11.90;69.90;;;;;;5329214;26;111207;-55
2024/04/23 10:11:13;;;;;;;1.45;1.17;;;11.90;71.00;;;;;;5327910;26;110768;-56
2024/04/23 10:13:46;;;;;;;1.55;1.20;;;11.90;72.00;;;;;;5306869;26;110686;-56
2024/04/23 10:16:32;;;;;;;1.98;1.38;;;12.40;71.20;;;;;;5328962;26;110548;-55
2024/04/23 10:19:09;;;;;;;1.20;1.10;;;13.00;69.40;;;;;;5329727;26;113088;-58
2024/04/23 10:21:39;;;;;;;1.52;1.08;;;13.20;69.20;;;;;;5328796;26;111577;-58
2024/04/23 10:24:08;;;;;;;3.22;1.00;;;13.90;68.70;;;;;;5329154;26;110968;-58
2024/04/23 10:26:37;;;;;;;1.00;0.90;;;13.20;68.60;;;;;;5329641;26;110798;-58
2024/04/23 10:29:07;;;;;;;1.23;1.10;;;12.90;69.00;;;;;;5328927;26;112121;-58
2024/04/23 10:31:33;;;;;;;1.65;1.10;;;12.90;69.50;;;;;;5308872;26;111728;-58
2024/04/23 10:34:02;;;;;;;2.10;0.95;;;13.00;68.20;;;;;;5302109;26;110800;-58
2024/04/23 10:36:29;;;;;;;1.30;0.88;;;13.10;67.40;;;;;;5317035;26;110524;-58
2024/04/23 10:38:59;;;;;;;1.67;1.10;;;13.00;67.90;;;;;;5328865;26;111137;-58
2024/04/23 10:41:25;;;;;;;4.93;1.27;;;12.90;69.20;;;;;;5329023;26;111497;-58
2024/04/23 10:43:53;;;;;;;3.03;1.30;;;12.90;69.30;;;;;;5329831;26;110576;-57
2024/04/23 10:46:19;;;;;;;1.20;1.08;;;12.70;68.00;;;;;;5321632;26;110519;-57
2024/04/23 10:48:53;;;;;;;0.90;0.88;;;12.60;68.90;;;;;;5327294;26;112454;-58
2024/04/23 10:51:25;;;;;;;0.70;0.70;;;12.50;68.50;;;;;;5320119;26;111099;-57
2024/04/23 10:53:52;;;;;;;1.05;0.95;;;12.00;69.10;;;;;;5329590;26;110929;-58
2024/04/23 10:56:23;;;;;;;2.53;1.00;;;11.90;71.70;;;;;;5332690;26;110878;-57
2024/04/23 10:58:59;;;;;;;3.55;1.10;;;11.70;71.90;;;;;;5329263;26;112653;-57
2024/04/23 11:01:24;;;;;;;1.23;0.98;;;11.60;72.60;;;;;;5316552;26;110910;-57
2024/04/23 11:03:55;;;;;;;1.15;1.08;;;11.50;73.40;;;;;;5330581;26;110896;-57
2024/04/23 11:06:21;;;;;;;1.45;1.00;;;11.50;73.90;;;;;;5322724;26;110538;-57
2024/04/23 11:08:50;;;;;;;1.50;1.30;;;11.60;75.80;;;;;;5322155;26;111307;-57
2024/04/23 11:11:25;;;;;;;1.50;1.40;;;11.70;75.50;;;;;;5329971;26;111880;-57
2024/04/23 11:13:57;;;;;;;1.10;1.10;;;11.90;75.60;;;;;;5328031;26;110529;-59
2024/04/23 11:16:23;;;;;;;1.35;1.08;;;12.30;73.70;;;;;;5313126;26;110623;-57
2024/04/23 11:18:52;;;;;;;1.75;1.15;;;13.10;70.90;;;;;;5324126;26;112435;-58
2024/04/23 11:21:28;;;;;;;5.82;1.27;;;14.30;69.50;;;;;;5329779;26;110784;-59
2024/04/23 11:23:56;;;;;;;1.50;1.10;;;15.00;69.70;;;;;;5318693;26;110714;-57
2024/04/23 11:26:22;;;;;;;0.93;0.93;;;14.70;68.60;;;;;;5321376;26;110591;-58
2024/04/23 11:28:49;;;;;;;1.00;1.00;;;14.40;68.50;;;;;;5318129;26;111276;-57
2024/04/23 11:31:15;;;;;;;1.13;1.02;;;14.10;70.20;;;;;;5319503;26;110884;-57
2024/04/23 11:33:41;;;;;;;1.05;1.00;;;14.00;67.70;;;;;;5331275;26;110490;-57
2024/04/23 11:36:08;;;;;;;1.67;1.27;;;14.30;68.40;;;;;;5317328;26;111173;-57
2024/04/23 11:38:43;;;;;;;1.27;1.17;;;14.90;67.30;;;;;;5324484;26;112295;-58
2024/04/23 11:41:14;;;;;;;3.40;3.10;;;15.10;66.70;;;;;;5322554;26;111333;-57
2024/04/23 11:43:43;;;;;;;5.57;3.50;;;15.30;65.60;;;;;;5312902;26;111516;-58
2024/04/23 11:46:15;;;;;;;1.27;1.00;;;15.80;64.10;;;;;;5330010;26;110632;-57
2024/04/23 11:48:42;;;;;;;1.43;1.17;;;15.90;63.20;;;;;;5327667;26;111545;-58
2024/04/23 11:51:08;;;;;;;0.88;0.80;;;16.20;60.80;;;;;;5325358;26;111317;-58
2024/04/23 11:53:34;;;;;;;2.45;0.88;;;16.20;61.20;;;;;;5319323;26;110793;-57
2024/04/23 11:56:00;;;;;;;1.83;1.08;;;16.60;59.10;;;;;;5321273;26;110908;-57
2024/04/23 11:58:26;;;;;;;1.00;0.90;;;16.80;57.70;;;;;;5325496;26;112391;-57
2024/04/23 12:00:55;;;;;;;1.17;0.75;;;17.00;57.00;;;;;;5324765;26;111739;-58
2024/04/23 12:03:23;;;;;;;0.75;0.70;;;16.90;55.70;;;;;;5322314;26;110517;-58
2024/04/23 12:05:49;;;;;;;1.75;0.75;;;16.90;54.00;;;;;;5300453;26;112599;-57
2024/04/23 12:08:15;;;;;;;1.40;0.98;;;17.00;53.90;;;;;;5311276;26;111125;-59
2024/04/23 12:10:43;;;;;;;1.63;0.70;;;17.20;53.50;;;;;;5319175;26;110626;-57
2024/04/23 12:13:19;;;;;;;2.15;0.85;;;17.40;51.60;;;;;;5331784;26;112596;-58
2024/04/23 12:15:45;;;;;;;0.77;0.77;;;17.50;53.70;;;;;;5303572;26;110530;-58
2024/04/23 12:18:10;;;;;;;1.00;0.82;;;17.80;52.50;;;;;;5323308;26;111782;-57
2024/04/23 12:20:37;;;;;;;1.95;1.00;;;17.80;51.10;;;;;;5315958;26;111401;-58
2024/04/23 12:23:12;;;;;;;0.80;0.80;;;17.70;50.00;;;;;;5332382;26;110373;-57
2024/04/23 12:25:41;;;;;;;0.90;0.90;;;17.70;51.20;;;;;;5299485;26;110669;-58
2024/04/23 12:28:07;;;;;;;0.70;0.70;;;17.90;51.20;;;;;;5319478;26;112411;-58
2024/04/23 12:30:34;;;;;;;1.15;0.80;;;18.00;51.40;;;;;;5313472;26;110928;-58
2024/04/23 12:33:10;;;;;;;0.70;0.70;;;17.80;49.90;;;;;;5316158;26;110866;-58
2024/04/23 12:35:35;;;;;;;1.90;0.70;;;16.90;51.60;;;;;;5329924;26;113693;-58
2024/04/23 12:38:01;;;;;;;0.77;0.77;;;16.80;51.50;;;;;;5330623;26;112437;-58
2024/04/23 12:40:27;;;;;;;0.93;0.75;;;16.90;51.10;;;;;;5330111;26;110595;-57
2024/04/23 12:42:55;;;;;;;0.80;0.80;;;17.40;49.80;;;;;;5331227;26;110395;-59
2024/04/23 12:45:20;;;;;;;0.80;0.65;;;17.50;49.90;;;;;;5323469;26;110733;-58
2024/04/23 12:47:46;;;;;;;0.70;0.70;;;17.40;49.50;;;;;;5330962;26;111111;-58
2024/04/23 12:50:13;;;;;;;0.90;0.68;;;17.80;49.30;;;;;;5330342;26;110906;-57